Davison, Michigan
Current Conditions -  °F | °C
As of 9:54 PM on Thursday 27 Nov 2014 (Local Time) from KD95 Reporting Station
Overcast Overcast  
Wind Chill: 10°   Ceiling: 3100
Heat Index: 23°   Visibility: 10mi
Dew Point: 12°   Wind: 15mph
Humidity: 64%   Direction: 330°NNW
Pressure: 30.28"   Gusts: 23mph
Location:  43.03°N, 83.51°W
Report Text: KD95 280254Z AUTO 33013G20KT 10SM OVC031 M05/M11 A3028 RMK AO2 T10511109
Loading
Personal Weather Stations






























Interactive Weather Map New forecast layout! Learn more

10-Day Weather Forecast

Advertisements
Track Severe Weather on mobile